createdAt,value
2018-11-21T00:00:11.113Z,98.60
2018-11-21T00:00:42.254Z,93.03
2018-11-21T00:01:13.277Z,93.62
2018-11-21T00:01:44.400Z,100.40
2018-11-21T00:02:15.474Z,96.82
2018-11-21T00:02:46.540Z,249.25
2018-11-21T00:03:17.613Z,91.00
2018-11-21T00:03:48.738Z,93.17
2018-11-21T00:04:19.868Z,141.32
2018-11-21T00:04:50.957Z,83.25
2018-11-21T00:05:22.032Z,87.45
2018-11-21T00:05:53.120Z,91.35
2018-11-21T00:06:24.198Z,197.60
2018-11-21T00:06:55.385Z,179.95
2018-11-21T00:07:26.442Z,178.50
2018-11-21T00:07:57.509Z,113.70
2018-11-21T00:08:28.597Z,119.00
2018-11-21T00:08:59.743Z,121.13
2018-11-21T00:09:30.756Z,107.63
2018-11-21T00:10:01.828Z,112.95
2018-11-21T00:10:32.918Z,92.22
2018-11-21T00:11:03.995Z,93.80
2018-11-21T00:11:35.065Z,91.08
2018-11-21T00:12:06.138Z,97.90
2018-11-21T00:12:37.224Z,88.00
2018-11-21T00:13:08.296Z,98.05
2018-11-21T00:13:41.336Z,96.22
2018-11-21T00:14:12.345Z,85.83
2018-11-21T00:14:43.426Z,152.35
2018-11-21T00:15:14.506Z,125.10
2018-11-21T00:15:45.627Z,97.15
2018-11-21T00:16:16.709Z,97.40
2018-11-21T00:16:47.775Z,209.80
2018-11-21T00:17:18.842Z,110.90
2018-11-21T00:17:49.939Z,120.05
2018-11-21T00:18:21.009Z,98.70
2018-11-21T00:19:00.670Z,114.12
2018-11-21T00:19:26.277Z,175.30
2018-11-21T00:19:57.422Z,118.28
2018-11-21T00:20:28.463Z,93.67
2018-11-21T00:20:59.539Z,87.67
2018-11-21T00:21:30.609Z,128.60
2018-11-21T00:22:01.726Z,147.20
2018-11-21T00:22:32.796Z,96.55
2018-11-21T00:23:03.874Z,146.02
2018-11-21T00:23:34.944Z,90.57
2018-11-21T00:24:06.108Z,124.22
2018-11-21T00:24:37.158Z,252.43
2018-11-21T00:25:08.244Z,101.82
2018-11-21T00:25:39.319Z,101.82
2018-11-21T00:26:11.389Z,90.38
2018-11-21T00:26:42.511Z,111.40
2018-11-21T00:27:13.631Z,97.57
2018-11-21T00:27:44.703Z,170.07
2018-11-21T00:28:15.792Z,185.90
2018-11-21T00:28:46.854Z,83.03
2018-11-21T00:29:20.761Z,92.78
2018-11-21T00:29:51.847Z,131.97
2018-11-21T00:30:22.920Z,79.45
2018-11-21T00:30:53.993Z,101.95
2018-11-21T00:31:25.080Z,83.17
2018-11-21T00:31:56.206Z,94.07
2018-11-21T00:32:27.261Z,81.78
2018-11-21T00:32:58.341Z,106.55
2018-11-21T00:33:29.412Z,84.72
2018-11-21T00:34:00.497Z,144.13
2018-11-21T00:34:31.614Z,111.92
2018-11-21T00:35:02.690Z,138.70
2018-11-21T00:35:33.820Z,116.95
2018-11-21T00:36:04.997Z,95.40
2018-11-21T00:36:36.083Z,109.55
2018-11-21T00:37:07.273Z,120.20
2018-11-21T00:37:38.257Z,166.97
2018-11-21T00:38:09.338Z,83.75
2018-11-21T00:38:40.439Z,141.15
2018-11-21T00:39:11.642Z,103.60
2018-11-21T00:39:42.700Z,114.67
2018-11-21T00:40:15.758Z,132.35
2018-11-21T00:40:46.853Z,121.97
2018-11-21T00:41:17.961Z,108.03
2018-11-21T00:41:50.878Z,93.85
2018-11-21T00:42:20.130Z,95.25
2018-11-21T00:42:51.174Z,100.38
2018-11-21T00:43:22.294Z,87.80
2018-11-21T00:43:53.379Z,84.55
2018-11-21T00:44:24.471Z,93.67
2018-11-21T00:44:55.556Z,110.57
2018-11-21T00:45:26.687Z,86.47
2018-11-21T00:45:57.698Z,81.63
2018-11-21T00:46:28.819Z,82.33
2018-11-21T00:46:59.891Z,91.40
2018-11-21T00:47:33.724Z,80.70
2018-11-21T00:48:04.799Z,73.33
2018-11-21T00:48:38.657Z,90.53
2018-11-21T00:49:09.727Z,80.07
2018-11-21T00:49:40.806Z,130.18
2018-11-21T00:50:12.106Z,136.97
2018-11-21T00:50:43.178Z,108.65
2018-11-21T00:51:14.542Z,129.78
2018-11-21T00:51:45.710Z,87.25
2018-11-21T00:52:16.800Z,94.35
2018-11-21T00:52:47.812Z,91.67
2018-11-21T00:53:18.888Z,91.17
2018-11-21T00:53:49.964Z,80.45
2018-11-21T00:54:21.047Z,84.80
2018-11-21T00:54:52.132Z,91.35
2018-11-21T00:55:23.196Z,78.00
2018-11-21T00:55:54.274Z,90.07
2018-11-21T00:56:25.430Z,106.27
2018-11-21T00:56:56.506Z,108.03
2018-11-21T00:57:27.647Z,80.95
2018-11-21T00:57:58.712Z,80.92
2018-11-21T00:58:29.847Z,77.05
2018-11-21T00:59:00.902Z,101.78
2018-11-21T00:59:31.988Z,101.80
2018-11-21T01:00:03.132Z,99.90
2018-11-21T01:00:34.167Z,70.42
2018-11-21T01:01:05.454Z,74.03
2018-11-21T01:01:36.533Z,72.25
2018-11-21T01:02:07.654Z,93.45
2018-11-21T01:02:39.963Z,179.23
2018-11-21T01:03:11.028Z,158.27
2018-11-21T01:03:42.094Z,143.20
2018-11-21T01:04:13.169Z,81.95
2018-11-21T01:04:44.298Z,74.95
2018-11-21T01:05:15.363Z,79.75
2018-11-21T01:05:46.440Z,111.37
2018-11-21T01:06:17.558Z,172.35
2018-11-21T01:06:48.625Z,162.35
2018-11-21T01:07:19.716Z,117.85
2018-11-21T01:07:50.783Z,70.65
2018-11-21T01:08:21.861Z,80.17
2018-11-21T01:08:53.002Z,82.78
2018-11-21T01:09:24.172Z,80.05
2018-11-21T01:09:55.279Z,125.30
2018-11-21T01:10:26.349Z,128.80
2018-11-21T01:10:57.420Z,132.27
2018-11-21T01:11:28.487Z,77.32
2018-11-21T01:11:59.571Z,75.85
2018-11-21T01:12:33.461Z,85.53
2018-11-21T01:13:04.483Z,91.37
2018-11-21T01:13:35.561Z,75.90
2018-11-21T01:14:08.904Z,100.42
2018-11-21T01:14:40.311Z,83.20
2018-11-21T01:15:11.379Z,80.57
2018-11-21T01:15:42.456Z,72.82
2018-11-21T01:16:13.550Z,75.97
2018-11-21T01:16:44.601Z,73.35
2018-11-21T01:17:15.676Z,86.78
2018-11-21T01:17:46.741Z,86.85
2018-11-21T01:18:17.814Z,94.32
2018-11-21T01:18:48.895Z,79.97
2018-11-21T01:19:20.009Z,77.80
2018-11-21T01:19:54.062Z,70.35
2018-11-21T01:20:25.130Z,77.40
2018-11-21T01:20:56.203Z,66.77
2018-11-21T01:21:27.327Z,78.65
2018-11-21T01:21:58.400Z,90.85
2018-11-21T01:22:29.473Z,81.17
2018-11-21T01:23:00.549Z,84.32
2018-11-21T01:23:31.635Z,89.80
2018-11-21T01:24:02.702Z,75.97
2018-11-21T01:24:33.825Z,90.85
2018-11-21T01:25:04.922Z,111.03
2018-11-21T01:25:35.972Z,66.50
2018-11-21T01:26:07.048Z,73.10
2018-11-21T01:26:38.118Z,101.20
2018-11-21T01:27:09.219Z,99.35
2018-11-21T01:27:40.271Z,102.45
2018-11-21T01:28:11.443Z,84.62
2018-11-21T01:28:43.697Z,110.03
2018-11-21T01:29:14.813Z,112.00
2018-11-21T01:29:47.650Z,132.67
2018-11-21T01:30:18.754Z,139.30
2018-11-21T01:30:49.901Z,180.60
2018-11-21T01:31:21.029Z,70.52
2018-11-21T01:31:52.178Z,119.20
2018-11-21T01:32:24.451Z,79.03
2018-11-21T01:32:55.670Z,79.92
2018-11-21T01:33:26.784Z,186.82
2018-11-21T01:33:57.895Z,117.50
2018-11-21T01:34:36.781Z,77.10
2018-11-21T01:35:06.487Z,83.82
2018-11-21T01:35:37.627Z,77.87
2018-11-21T01:36:09.401Z,81.78
2018-11-21T01:36:40.982Z,95.50
2018-11-21T01:37:12.187Z,77.60
2018-11-21T01:37:43.602Z,88.42
2018-11-21T01:38:16.360Z,104.85
2018-11-21T01:38:47.528Z,137.70
2018-11-21T01:39:18.646Z,68.20
2018-11-21T01:39:49.852Z,102.70
2018-11-21T01:40:21.217Z,88.00
2018-11-21T01:40:54.906Z,123.60
2018-11-21T01:41:26.026Z,145.92
2018-11-21T01:41:57.215Z,115.45
2018-11-21T01:42:28.242Z,186.67
2018-11-21T01:42:59.320Z,94.25
2018-11-21T01:43:30.439Z,84.62
2018-11-21T01:44:01.509Z,133.18
2018-11-21T01:44:32.574Z,165.82
2018-11-21T01:45:03.642Z,174.75
2018-11-21T01:45:34.756Z,92.37
2018-11-21T01:46:05.832Z,92.50
2018-11-21T01:46:36.911Z,85.95
2018-11-21T01:47:07.974Z,91.80
2018-11-21T01:47:39.052Z,79.40
2018-11-21T01:48:10.114Z,76.65
2018-11-21T01:48:41.242Z,73.42
2018-11-21T01:49:12.335Z,101.55
2018-11-21T01:49:43.415Z,74.97
2018-11-21T01:50:14.493Z,98.58
2018-11-21T01:50:45.560Z,81.92
2018-11-21T01:51:16.629Z,82.97
2018-11-21T01:51:47.708Z,161.03
2018-11-21T01:52:18.834Z,127.75
2018-11-21T01:52:49.894Z,107.15
2018-11-21T01:53:20.999Z,86.02
2018-11-21T01:53:52.177Z,121.70
2018-11-21T01:54:24.208Z,166.73
2018-11-21T01:54:56.056Z,245.95
2018-11-21T01:55:27.139Z,127.95
2018-11-21T01:55:58.238Z,138.52
2018-11-21T01:56:29.458Z,275.07
2018-11-21T01:57:00.601Z,101.65
2018-11-21T01:57:33.687Z,78.60
2018-11-21T01:58:04.850Z,83.78
2018-11-21T01:58:35.983Z,79.40
2018-11-21T01:59:08.029Z,122.80
2018-11-21T01:59:39.147Z,147.25
2018-11-21T02:00:10.221Z,81.40
2018-11-21T02:00:41.292Z,69.32
2018-11-21T02:01:12.447Z,73.30
2018-11-21T02:01:43.519Z,75.65
2018-11-21T02:02:14.633Z,145.43
2018-11-21T02:02:45.704Z,177.72
2018-11-21T02:03:16.783Z,191.55
2018-11-21T02:03:47.866Z,517.12
2018-11-21T02:04:18.933Z,322.98
2018-11-21T02:04:50.007Z,229.65
2018-11-21T02:05:21.083Z,122.45
2018-11-21T02:05:52.219Z,90.87
2018-11-21T02:06:23.282Z,100.35
2018-11-21T02:06:54.368Z,89.30
2018-11-21T02:07:25.437Z,82.22
2018-11-21T02:07:56.504Z,83.27
2018-11-21T02:08:27.578Z,84.05
2018-11-21T02:08:58.650Z,127.40
2018-11-21T02:09:29.715Z,144.65
2018-11-21T02:10:00.790Z,89.22
2018-11-21T02:10:31.858Z,257.30
2018-11-21T02:11:02.944Z,136.22
2018-11-21T02:11:34.025Z,110.85
2018-11-21T02:12:05.107Z,94.45
2018-11-21T02:12:36.173Z,114.90
2018-11-21T02:13:07.234Z,82.40
2018-11-21T02:13:38.354Z,91.50
2018-11-21T02:14:09.435Z,111.75
2018-11-21T02:14:40.502Z,92.37
2018-11-21T02:15:11.620Z,134.00
2018-11-21T02:15:42.700Z,157.72
2018-11-21T02:16:13.777Z,252.97
2018-11-21T02:16:44.855Z,235.57
2018-11-21T02:17:15.939Z,81.95
2018-11-21T02:17:47.061Z,78.30
2018-11-21T02:18:18.170Z,73.47
2018-11-21T02:18:50.353Z,70.12
2018-11-21T02:19:21.450Z,75.50
2018-11-21T02:19:52.547Z,69.30
2018-11-21T02:20:23.693Z,78.05
2018-11-21T02:20:55.828Z,99.28
2018-11-21T02:21:26.961Z,69.55
2018-11-21T02:21:58.731Z,69.35
2018-11-21T02:22:29.886Z,72.87
2018-11-21T02:23:01.065Z,70.32
2018-11-21T02:23:32.214Z,86.05
2018-11-21T02:24:03.323Z,65.92
2018-11-21T02:24:34.506Z,71.67
2018-11-21T02:25:05.596Z,144.80
2018-11-21T02:25:36.715Z,187.68
2018-11-21T02:26:07.837Z,157.72
2018-11-21T02:26:38.960Z,90.67
2018-11-21T02:27:10.050Z,88.33
2018-11-21T02:27:41.122Z,131.55
2018-11-21T02:28:12.251Z,142.53
2018-11-21T02:28:43.257Z,189.85
2018-11-21T02:29:14.414Z,127.15
2018-11-21T02:29:45.477Z,100.30
2018-11-21T02:30:16.562Z,144.72
2018-11-21T02:30:47.640Z,101.58
2018-11-21T02:31:18.738Z,224.27
2018-11-21T02:31:49.856Z,307.92
2018-11-21T02:32:20.921Z,79.25
2018-11-21T02:32:51.989Z,83.22
2018-11-21T02:33:23.064Z,68.28
2018-11-21T02:33:54.121Z,75.78
2018-11-21T02:34:25.193Z,69.20
2018-11-21T02:34:56.275Z,76.25
2018-11-21T02:35:27.389Z,75.00
2018-11-21T02:35:58.527Z,124.58
2018-11-21T02:36:29.545Z,151.35
2018-11-21T02:37:00.734Z,72.90
2018-11-21T02:37:31.751Z,71.77
2018-11-21T02:38:02.880Z,73.92
2018-11-21T02:38:33.886Z,93.78
2018-11-21T02:39:04.958Z,68.70
2018-11-21T02:39:36.033Z,75.97
2018-11-21T02:40:07.109Z,98.30
2018-11-21T02:40:38.173Z,125.25
2018-11-21T02:41:09.252Z,95.17
2018-11-21T02:41:40.356Z,103.00
2018-11-21T02:42:11.459Z,75.55
2018-11-21T02:42:42.547Z,91.70
2018-11-21T02:43:13.633Z,83.20
2018-11-21T02:43:44.795Z,73.80
2018-11-21T02:44:15.941Z,89.55
2018-11-21T02:44:47.061Z,69.45
2018-11-21T02:45:18.202Z,66.60
2018-11-21T02:45:49.263Z,59.85
2018-11-21T02:46:20.334Z,76.67
2018-11-21T02:46:51.420Z,84.20
2018-11-21T02:47:22.536Z,66.42
2018-11-21T02:47:53.596Z,75.72
2018-11-21T02:48:24.681Z,62.05
2018-11-21T02:48:55.742Z,59.10
2018-11-21T02:49:26.806Z,66.10
2018-11-21T02:49:57.866Z,61.23
2018-11-21T02:50:28.937Z,62.60
2018-11-21T02:51:00.033Z,64.75
2018-11-21T02:51:31.147Z,66.17
2018-11-21T02:52:02.226Z,63.95
2018-11-21T02:52:33.292Z,89.83
2018-11-21T02:53:04.370Z,79.87
2018-11-21T02:53:35.447Z,110.10
2018-11-21T02:54:06.515Z,68.78
2018-11-21T02:54:37.631Z,59.90
2018-11-21T02:55:08.723Z,122.67
2018-11-21T02:55:39.791Z,66.57
2018-11-21T02:56:10.914Z,70.10
2018-11-21T02:56:41.954Z,112.88
2018-11-21T02:57:13.123Z,62.35
2018-11-21T02:57:44.141Z,66.20
2018-11-21T02:58:15.211Z,76.25
2018-11-21T02:58:46.352Z,175.62
2018-11-21T02:59:17.430Z,65.83
2018-11-21T02:59:48.494Z,63.60
2018-11-21T03:00:19.573Z,65.10
2018-11-21T03:00:53.380Z,84.70
2018-11-21T03:01:24.474Z,148.45
2018-11-21T03:01:55.724Z,103.78
2018-11-21T03:02:26.802Z,147.95
2018-11-21T03:02:58.000Z,57.85
2018-11-21T03:03:32.172Z,55.78
2018-11-21T03:04:03.365Z,62.33
2018-11-21T03:04:34.472Z,62.60
2018-11-21T03:05:10.143Z,59.08
2018-11-21T03:05:41.311Z,56.45
2018-11-21T03:06:12.980Z,67.72
2018-11-21T03:06:45.348Z,55.63
2018-11-21T03:07:16.508Z,72.45
2018-11-21T03:07:47.718Z,64.27
2018-11-21T03:08:18.824Z,54.40
2018-11-21T03:08:49.989Z,93.40
2018-11-21T03:09:21.172Z,57.98
2018-11-21T03:09:52.319Z,75.05
2018-11-21T03:10:23.409Z,63.60
2018-11-21T03:10:54.618Z,62.60
2018-11-21T03:11:25.761Z,57.30
2018-11-21T03:11:56.923Z,60.73
2018-11-21T03:12:28.060Z,53.02
2018-11-21T03:12:59.257Z,48.50
2018-11-21T03:13:30.361Z,53.50
2018-11-21T03:14:03.662Z,60.35
2018-11-21T03:14:34.768Z,100.72
2018-11-21T03:15:05.883Z,95.45
2018-11-21T03:15:37.003Z,56.60
2018-11-21T03:16:08.124Z,54.40
2018-11-21T03:16:39.187Z,57.48
2018-11-21T03:17:10.265Z,49.05
2018-11-21T03:17:41.402Z,51.18
2018-11-21T03:18:12.533Z,96.63
2018-11-21T03:18:43.540Z,59.38
2018-11-21T03:19:14.645Z,63.33
2018-11-21T03:19:45.680Z,51.65
2018-11-21T03:20:16.897Z,50.03
2018-11-21T03:20:47.998Z,56.20
2018-11-21T03:21:19.150Z,73.07
2018-11-21T03:21:50.228Z,56.70
2018-11-21T03:22:21.310Z,47.48
2018-11-21T03:22:52.326Z,53.45
2018-11-21T03:23:23.392Z,54.00
2018-11-21T03:23:54.501Z,46.83
2018-11-21T03:24:25.569Z,90.20
2018-11-21T03:24:56.654Z,54.50
2018-11-21T03:25:27.727Z,60.20
2018-11-21T03:25:58.900Z,110.25
2018-11-21T03:26:29.962Z,70.03
2018-11-21T03:27:01.052Z,54.70
2018-11-21T03:27:32.288Z,54.23
2018-11-21T03:28:03.379Z,73.92
2018-11-21T03:28:34.453Z,93.45
2018-11-21T03:29:05.549Z,116.35
2018-11-21T03:29:36.619Z,51.75
2018-11-21T03:30:07.714Z,65.08
2018-11-21T03:30:39.921Z,242.75
2018-11-21T03:31:09.853Z,57.43
2018-11-21T03:31:40.943Z,55.58
2018-11-21T03:32:12.068Z,88.70
2018-11-21T03:32:43.088Z,50.83
2018-11-21T03:33:14.199Z,62.85
2018-11-21T03:33:45.275Z,51.00
2018-11-21T03:34:16.344Z,49.08
2018-11-21T03:34:47.415Z,47.98
2018-11-21T03:35:18.526Z,48.40
2018-11-21T03:35:49.598Z,62.78
2018-11-21T03:36:20.668Z,52.15
2018-11-21T03:36:51.742Z,45.40
2018-11-21T03:37:22.804Z,47.33
2018-11-21T03:37:53.863Z,47.40
2018-11-21T03:38:24.935Z,44.60
2018-11-21T03:38:56.011Z,52.55
2018-11-21T03:39:27.148Z,47.48
2018-11-21T03:39:58.144Z,60.92
2018-11-21T03:40:29.329Z,51.60
2018-11-21T03:41:00.324Z,55.67
2018-11-21T03:41:31.387Z,52.30
2018-11-21T03:42:02.512Z,65.00
2018-11-21T03:42:33.646Z,58.45
2018-11-21T03:43:04.715Z,52.10
2018-11-21T03:43:35.868Z,53.80
2018-11-21T03:44:06.867Z,59.20
2018-11-21T03:44:37.924Z,78.62
2018-11-21T03:45:09.013Z,54.38
2018-11-21T03:45:40.096Z,83.90
2018-11-21T03:46:11.160Z,69.90
2018-11-21T03:46:42.234Z,52.90
2018-11-21T03:47:13.358Z,59.00
2018-11-21T03:47:44.420Z,63.02
2018-11-21T03:48:15.489Z,53.15
2018-11-21T03:48:46.560Z,54.73
2018-11-21T03:49:17.609Z,59.67
2018-11-21T03:49:48.681Z,66.07
2018-11-21T03:50:19.749Z,60.45
2018-11-21T03:50:50.825Z,48.60
2018-11-21T03:51:21.918Z,61.68
2018-11-21T03:51:52.983Z,110.22
2018-11-21T03:52:24.127Z,112.32
2018-11-21T03:52:55.217Z,95.10
2018-11-21T03:53:26.290Z,101.90
2018-11-21T03:53:57.386Z,100.25
2018-11-21T03:54:29.737Z,101.05
2018-11-21T03:55:02.371Z,381.90
2018-11-21T03:55:33.442Z,287.98
2018-11-21T03:56:04.506Z,63.50
2018-11-21T03:56:35.579Z,105.50
2018-11-21T03:57:06.637Z,84.87
2018-11-21T03:57:37.762Z,78.15
2018-11-21T03:58:09.142Z,87.22
2018-11-21T03:58:40.222Z,59.08
2018-11-21T03:59:11.311Z,62.67
2018-11-21T03:59:42.417Z,56.23
2018-11-21T04:00:13.491Z,69.90
2018-11-21T04:00:44.588Z,75.42
2018-11-21T04:01:16.961Z,64.80
2018-11-21T04:01:46.827Z,57.73
2018-11-21T04:02:17.909Z,50.10
2018-11-21T04:02:48.964Z,52.53
2018-11-21T04:03:20.070Z,48.17
2018-11-21T04:03:51.145Z,56.95
2018-11-21T04:04:22.279Z,59.18
2018-11-21T04:04:53.301Z,54.27
2018-11-21T04:05:24.895Z,63.80
2018-11-21T04:05:56.042Z,47.53
2018-11-21T04:06:27.279Z,56.55
2018-11-21T04:06:58.450Z,56.98
2018-11-21T04:07:30.083Z,58.10
2018-11-21T04:08:01.271Z,49.90
2018-11-21T04:08:32.448Z,57.48
2018-11-21T04:09:03.502Z,57.67
2018-11-21T04:09:34.694Z,52.30
2018-11-21T04:10:06.623Z,52.78
2018-11-21T04:10:38.833Z,51.35
2018-11-21T04:11:10.605Z,51.28
2018-11-21T04:11:43.781Z,47.73
2018-11-21T04:12:15.000Z,52.60
2018-11-21T04:12:46.073Z,46.35
2018-11-21T04:13:17.268Z,47.30
2018-11-21T04:13:51.549Z,53.20
2018-11-21T04:14:22.633Z,50.83
2018-11-21T04:14:53.822Z,48.83
2018-11-21T04:15:26.988Z,49.67
2018-11-21T04:15:59.045Z,54.35
2018-11-21T04:16:30.175Z,56.80
2018-11-21T04:17:01.276Z,47.62
2018-11-21T04:17:32.479Z,50.15
2018-11-21T04:18:03.614Z,58.40
2018-11-21T04:18:34.645Z,49.27
2018-11-21T04:19:05.713Z,56.60
2018-11-21T04:19:36.828Z,50.60
2018-11-21T04:20:07.892Z,50.83
2018-11-21T04:20:38.973Z,51.45
2018-11-21T04:21:10.048Z,47.43
2018-11-21T04:21:41.182Z,51.98
2018-11-21T04:22:12.189Z,49.35
2018-11-21T04:22:43.269Z,60.00
2018-11-21T04:23:14.338Z,47.80
2018-11-21T04:23:45.464Z,66.92
2018-11-21T04:24:16.525Z,57.62
2018-11-21T04:24:48.964Z,90.12
2018-11-21T04:25:18.678Z,101.75
2018-11-21T04:25:49.827Z,58.75
2018-11-21T04:26:20.841Z,117.40
2018-11-21T04:26:51.912Z,104.47
2018-11-21T04:27:22.979Z,67.05
2018-11-21T04:27:54.042Z,64.82
2018-11-21T04:28:25.102Z,66.50
2018-11-21T04:28:56.178Z,62.80
2018-11-21T04:29:27.251Z,46.45
2018-11-21T04:29:58.345Z,50.17
2018-11-21T04:30:29.455Z,45.33
2018-11-21T04:31:00.524Z,46.60
2018-11-21T04:31:31.705Z,49.13
2018-11-21T04:32:02.702Z,47.93
2018-11-21T04:32:33.782Z,58.02
2018-11-21T04:33:04.857Z,55.40
2018-11-21T04:33:35.934Z,50.92
2018-11-21T04:34:07.012Z,44.33
2018-11-21T04:34:39.090Z,50.28
2018-11-21T04:35:09.189Z,45.98
2018-11-21T04:35:40.260Z,50.38
2018-11-21T04:36:11.335Z,44.67
2018-11-21T04:36:42.413Z,41.37
2018-11-21T04:37:13.493Z,43.87
2018-11-21T04:37:44.548Z,43.15
2018-11-21T04:38:15.632Z,39.88
2018-11-21T04:38:46.706Z,41.80
2018-11-21T04:39:17.841Z,41.75
2018-11-21T04:39:48.933Z,43.38
2018-11-21T04:40:19.990Z,39.83
2018-11-21T04:40:51.062Z,42.13
2018-11-21T04:41:22.139Z,45.28
2018-11-21T04:41:53.218Z,45.78
2018-11-21T04:42:26.258Z,49.20
2018-11-21T04:42:57.330Z,43.02
2018-11-21T04:43:28.392Z,42.50
2018-11-21T04:43:59.537Z,40.80
2018-11-21T04:44:30.609Z,38.70
2018-11-21T04:45:01.761Z,41.40
2018-11-21T04:45:32.832Z,47.38
2018-11-21T04:46:03.901Z,45.80
2018-11-21T04:46:34.984Z,41.88
2018-11-21T04:47:06.048Z,41.73
2018-11-21T04:47:37.121Z,38.50
2018-11-21T04:48:08.185Z,39.95
2018-11-21T04:48:39.322Z,40.30
2018-11-21T04:49:10.389Z,39.83
2018-11-21T04:49:41.467Z,38.63
2018-11-21T04:50:12.544Z,34.43
2018-11-21T04:50:43.612Z,38.95
2018-11-21T04:51:14.687Z,43.02
2018-11-21T04:51:45.808Z,38.13
2018-11-21T04:52:16.944Z,39.53
2018-11-21T04:52:48.012Z,36.40
2018-11-21T04:53:19.085Z,36.55
2018-11-21T04:53:51.423Z,36.28
2018-11-21T04:54:21.294Z,36.88
2018-11-21T04:54:52.364Z,37.83
2018-11-21T04:55:23.435Z,36.30
2018-11-21T04:55:54.498Z,35.80
2018-11-21T04:56:25.571Z,36.20
2018-11-21T04:56:56.682Z,38.50
2018-11-21T04:57:27.754Z,37.38
2018-11-21T04:57:58.840Z,42.48
2018-11-21T04:58:29.912Z,40.00
2018-11-21T04:59:00.979Z,35.55
2018-11-21T04:59:32.048Z,40.80
2018-11-21T05:00:03.138Z,39.13
2018-11-21T05:00:34.215Z,41.75
2018-11-21T05:01:05.337Z,55.52
2018-11-21T05:01:36.468Z,42.62
2018-11-21T05:02:07.476Z,41.13
2018-11-21T05:02:38.548Z,43.58
2018-11-21T05:03:09.612Z,36.95
2018-11-21T05:03:40.692Z,38.90
2018-11-21T05:04:11.761Z,42.30
2018-11-21T05:04:42.836Z,57.95
2018-11-21T05:05:13.919Z,38.63
2018-11-21T05:05:45.025Z,41.65
2018-11-21T05:06:16.099Z,46.05
2018-11-21T05:06:47.178Z,41.23
2018-11-21T05:07:18.292Z,39.50
2018-11-21T05:07:49.383Z,38.98
2018-11-21T05:08:20.440Z,38.40
2018-11-21T05:08:51.585Z,39.88
2018-11-21T05:09:22.582Z,38.70
2018-11-21T05:09:53.688Z,38.55
2018-11-21T05:10:24.761Z,43.30
2018-11-21T05:10:55.832Z,41.77
2018-11-21T05:11:26.911Z,37.98
2018-11-21T05:11:58.769Z,40.80
2018-11-21T05:12:29.891Z,41.18
2018-11-21T05:13:00.963Z,41.70
2018-11-21T05:13:32.101Z,40.92
2018-11-21T05:14:03.119Z,39.25
2018-11-21T05:14:34.189Z,39.58
2018-11-21T05:15:05.259Z,40.92
2018-11-21T05:15:36.390Z,40.55
2018-11-21T05:16:07.394Z,37.28
2018-11-21T05:16:38.488Z,40.60
2018-11-21T05:17:09.598Z,42.27
2018-11-21T05:17:40.700Z,40.38
2018-11-21T05:18:11.779Z,39.10
2018-11-21T05:18:42.853Z,43.35
2018-11-21T05:19:13.925Z,38.73
2018-11-21T05:19:45.019Z,40.15
2018-11-21T05:20:16.070Z,39.75
2018-11-21T05:20:47.144Z,43.10
2018-11-21T05:21:18.258Z,35.80
2018-11-21T05:21:49.381Z,36.68
2018-11-21T05:22:20.539Z,40.10
2018-11-21T05:22:51.568Z,38.20
2018-11-21T05:23:22.640Z,37.05
2018-11-21T05:23:53.700Z,41.77
2018-11-21T05:24:24.776Z,40.43
2018-11-21T05:24:55.853Z,37.30
2018-11-21T05:25:26.913Z,41.05
2018-11-21T05:25:57.989Z,40.80
2018-11-21T05:26:29.059Z,42.38
2018-11-21T05:27:00.191Z,39.42
2018-11-21T05:27:31.262Z,39.05
2018-11-21T05:28:02.377Z,41.98
2018-11-21T05:28:33.454Z,38.65
2018-11-21T05:29:04.561Z,34.63
2018-11-21T05:29:35.639Z,37.58
2018-11-21T05:30:06.713Z,37.65
2018-11-21T05:30:37.778Z,35.30
2018-11-21T05:31:08.849Z,36.28
2018-11-21T05:31:39.961Z,34.60
2018-11-21T05:32:11.051Z,35.48
2018-11-21T05:32:42.108Z,31.77
2018-11-21T05:33:13.188Z,36.63
2018-11-21T05:33:44.257Z,35.08
2018-11-21T05:34:15.318Z,34.65
2018-11-21T05:34:46.400Z,36.20
2018-11-21T05:35:17.463Z,35.25
2018-11-21T05:35:48.532Z,37.67
2018-11-21T05:36:19.666Z,32.98
2018-11-21T05:36:50.739Z,37.35
2018-11-21T05:37:21.887Z,35.80
2018-11-21T05:37:52.954Z,35.83
2018-11-21T05:38:24.034Z,38.92
2018-11-21T05:38:55.105Z,34.53
2018-11-21T05:39:26.168Z,34.88
2018-11-21T05:39:57.242Z,35.35
2018-11-21T05:40:28.329Z,33.40
2018-11-21T05:40:59.452Z,39.27
2018-11-21T05:41:30.561Z,37.17
2018-11-21T05:42:01.682Z,34.92
2018-11-21T05:42:32.847Z,40.60
2018-11-21T05:43:03.939Z,39.92
2018-11-21T05:43:35.031Z,40.52
2018-11-21T05:44:06.145Z,35.48
2018-11-21T05:44:37.155Z,35.83
2018-11-21T05:45:08.292Z,42.53
2018-11-21T05:45:39.363Z,33.23
2018-11-21T05:46:10.530Z,36.98
2018-11-21T05:46:41.531Z,41.42
2018-11-21T05:47:12.681Z,36.45
2018-11-21T05:47:43.691Z,34.30
2018-11-21T05:48:14.830Z,35.92
2018-11-21T05:48:45.889Z,37.05
2018-11-21T05:49:16.971Z,37.98
2018-11-21T05:49:48.041Z,36.55
2018-11-21T05:50:19.121Z,37.53
2018-11-21T05:50:50.198Z,36.23
2018-11-21T05:51:21.358Z,36.90
2018-11-21T05:51:52.473Z,35.30
2018-11-21T05:52:23.555Z,38.33
2018-11-21T05:52:54.726Z,35.13
2018-11-21T05:53:25.778Z,35.25
2018-11-21T05:53:56.864Z,32.20
2018-11-21T05:54:28.007Z,35.65
2018-11-21T05:54:59.191Z,34.20
2018-11-21T05:55:30.362Z,35.23
2018-11-21T05:56:01.402Z,36.33
2018-11-21T05:56:32.479Z,34.70
2018-11-21T05:57:03.508Z,35.98
2018-11-21T05:57:34.676Z,38.38
2018-11-21T05:58:05.768Z,36.45
2018-11-21T05:58:40.829Z,37.08
2018-11-21T05:59:12.870Z,33.63
2018-11-21T05:59:48.048Z,35.75
2018-11-21T06:00:19.221Z,33.15
2018-11-21T06:00:50.280Z,34.78
2018-11-21T06:01:22.488Z,33.58
2018-11-21T06:01:54.787Z,36.33
2018-11-21T06:02:28.481Z,30.52
2018-11-21T06:03:03.629Z,34.10
2018-11-21T06:03:34.794Z,34.53
2018-11-21T06:04:16.569Z,33.85
2018-11-21T06:04:47.753Z,30.00
2018-11-21T06:05:20.794Z,33.53
2018-11-21T06:05:52.025Z,31.70
2018-11-21T06:06:31.320Z,39.53
2018-11-21T06:07:10.167Z,37.48
2018-11-21T06:07:41.363Z,39.23
2018-11-21T06:08:14.600Z,36.42
2018-11-21T06:08:45.776Z,41.25
2018-11-21T06:09:16.825Z,36.95
2018-11-21T06:09:49.039Z,34.08
2018-11-21T06:10:22.645Z,42.98
2018-11-21T06:10:54.964Z,36.35
2018-11-21T06:11:31.303Z,34.45
2018-11-21T06:12:11.711Z,34.45
2018-11-21T06:12:41.240Z,35.08
2018-11-21T06:13:14.627Z,34.70
2018-11-21T06:13:46.759Z,31.90
2018-11-21T06:14:22.092Z,31.60
2018-11-21T06:14:53.272Z,31.40
2018-11-21T06:15:24.437Z,31.87
2018-11-21T06:15:55.651Z,32.00
2018-11-21T06:16:28.930Z,33.70
2018-11-21T06:17:00.075Z,33.60
2018-11-21T06:17:33.691Z,32.90
2018-11-21T06:18:04.891Z,37.48
2018-11-21T06:18:36.324Z,35.30
2018-11-21T06:19:07.454Z,36.28
2018-11-21T06:19:38.657Z,37.03
2018-11-21T06:20:10.217Z,34.58
2018-11-21T06:20:43.965Z,35.52
2018-11-21T06:21:14.981Z,36.75
2018-11-21T06:21:46.131Z,37.48
2018-11-21T06:22:17.414Z,37.08
2018-11-21T06:22:48.470Z,43.80
2018-11-21T06:23:19.864Z,37.23
2018-11-21T06:23:51.063Z,37.38
2018-11-21T06:24:24.641Z,43.15
2018-11-21T06:24:57.709Z,42.13
2018-11-21T06:25:27.933Z,38.75
2018-11-21T06:25:59.027Z,43.13
2018-11-21T06:26:32.625Z,39.67
2018-11-21T06:27:03.749Z,37.70
2018-11-21T06:27:35.270Z,40.08
2018-11-21T06:28:06.416Z,40.10
2018-11-21T06:28:37.781Z,37.75
2018-11-21T06:29:08.967Z,37.75
2018-11-21T06:29:40.833Z,40.28
2018-11-21T06:30:11.966Z,39.58
2018-11-21T06:30:45.385Z,39.50
2018-11-21T06:31:15.484Z,38.10
2018-11-21T06:31:46.713Z,37.05
2018-11-21T06:32:21.784Z,38.92
2018-11-21T06:33:06.283Z,38.60
2018-11-21T06:33:37.495Z,39.30
2018-11-21T06:34:08.589Z,39.05
2018-11-21T06:34:40.614Z,38.53
2018-11-21T06:35:11.962Z,41.23
2018-11-21T06:35:43.556Z,43.78
2018-11-21T06:36:14.751Z,46.65
2018-11-21T06:36:48.669Z,43.90
2018-11-21T06:37:19.865Z,44.93
2018-11-21T06:37:50.942Z,42.90
2018-11-21T06:38:22.022Z,46.37
2018-11-21T06:38:53.134Z,46.80
2018-11-21T06:39:24.314Z,42.93
2018-11-21T06:39:56.542Z,46.48
2018-11-21T06:40:26.630Z,42.80
2018-11-21T06:40:57.707Z,44.10